sensor_id;sensor_type;location;lat;lon;timestamp;P1;durP1;ratioP1;P2;durP2;ratioP2
83684;SDS011;73666;51.304;5.776;2023-11-19T00:01:56;4.40;;;2.20;;
83684;SDS011;73666;51.304;5.776;2023-11-19T00:06:57;2.70;;;1.55;;
83684;SDS011;73666;51.304;5.776;2023-11-19T00:12:06;1.42;;;1.33;;
83684;SDS011;73666;51.304;5.776;2023-11-19T00:17:07;2.00;;;1.70;;
83684;SDS011;73666;51.304;5.776;2023-11-19T00:22:07;2.45;;;1.60;;
83684;SDS011;73666;51.304;5.776;2023-11-19T00:27:08;2.75;;;1.70;;
83684;SDS011;73666;51.304;5.776;2023-11-19T00:32:09;3.45;;;1.58;;
83684;SDS011;73666;51.304;5.776;2023-11-19T00:37:10;3.95;;;1.55;;
83684;SDS011;73666;51.304;5.776;2023-11-19T00:42:10;2.15;;;1.17;;
83684;SDS011;73666;51.304;5.776;2023-11-19T00:47:11;3.50;;;1.38;;
83684;SDS011;73666;51.304;5.776;2023-11-19T00:52:12;2.75;;;1.15;;
83684;SDS011;73666;51.304;5.776;2023-11-19T00:57:13;1.15;;;1.05;;
83684;SDS011;73666;51.304;5.776;2023-11-19T01:02:14;2.20;;;1.13;;
83684;SDS011;73666;51.304;5.776;2023-11-19T01:07:15;3.40;;;1.17;;
83684;SDS011;73666;51.304;5.776;2023-11-19T01:12:16;3.33;;;1.00;;
83684;SDS011;73666;51.304;5.776;2023-11-19T01:17:17;2.20;;;0.90;;
83684;SDS011;73666;51.304;5.776;2023-11-19T01:22:20;5.38;;;1.33;;
83684;SDS011;73666;51.304;5.776;2023-11-19T01:27:21;6.18;;;1.42;;
83684;SDS011;73666;51.304;5.776;2023-11-19T01:32:22;5.07;;;1.15;;
83684;SDS011;73666;51.304;5.776;2023-11-19T01:37:24;2.80;;;0.88;;
83684;SDS011;73666;51.304;5.776;2023-11-19T01:42:27;5.03;;;1.02;;
83684;SDS011;73666;51.304;5.776;2023-11-19T01:47:28;3.92;;;0.95;;
83684;SDS011;73666;51.304;5.776;2023-11-19T01:52:30;2.65;;;0.88;;
83684;SDS011;73666;51.304;5.776;2023-11-19T01:57:33;4.22;;;0.80;;
83684;SDS011;73666;51.304;5.776;2023-11-19T02:02:37;7.25;;;1.20;;
83684;SDS011;73666;51.304;5.776;2023-11-19T02:07:40;8.93;;;1.23;;
83684;SDS011;73666;51.304;5.776;2023-11-19T02:12:41;3.25;;;1.10;;
83684;SDS011;73666;51.304;5.776;2023-11-19T02:17:45;8.23;;;1.25;;
83684;SDS011;73666;51.304;5.776;2023-11-19T02:22:46;4.43;;;0.85;;
83684;SDS011;73666;51.304;5.776;2023-11-19T02:27:57;4.45;;;1.42;;
83684;SDS011;73666;51.304;5.776;2023-11-19T02:33:00;11.98;;;1.60;;
83684;SDS011;73666;51.304;5.776;2023-11-19T02:38:05;5.78;;;0.93;;
83684;SDS011;73666;51.304;5.776;2023-11-19T02:43:10;4.47;;;1.08;;
83684;SDS011;73666;51.304;5.776;2023-11-19T02:48:11;7.13;;;1.38;;
83684;SDS011;73666;51.304;5.776;2023-11-19T02:53:12;4.13;;;1.35;;
83684;SDS011;73666;51.304;5.776;2023-11-19T02:58:13;8.30;;;1.98;;
83684;SDS011;73666;51.304;5.776;2023-11-19T03:03:20;10.20;;;1.63;;
83684;SDS011;73666;51.304;5.776;2023-11-19T03:08:22;6.10;;;1.13;;
83684;SDS011;73666;51.304;5.776;2023-11-19T03:13:23;9.95;;;1.38;;
83684;SDS011;73666;51.304;5.776;2023-11-19T03:18:24;10.50;;;1.23;;
83684;SDS011;73666;51.304;5.776;2023-11-19T03:23:25;6.40;;;1.35;;
83684;SDS011;73666;51.304;5.776;2023-11-19T03:28:28;14.25;;;2.08;;
83684;SDS011;73666;51.304;5.776;2023-11-19T03:33:28;10.80;;;1.65;;
83684;SDS011;73666;51.304;5.776;2023-11-19T03:38:29;11.93;;;2.20;;
83684;SDS011;73666;51.304;5.776;2023-11-19T03:43:30;12.20;;;1.48;;
83684;SDS011;73666;51.304;5.776;2023-11-19T03:48:31;15.10;;;2.47;;
83684;SDS011;73666;51.304;5.776;2023-11-19T03:53:32;5.53;;;1.50;;
83684;SDS011;73666;51.304;5.776;2023-11-19T03:58:33;9.93;;;1.40;;
83684;SDS011;73666;51.304;5.776;2023-11-19T04:03:34;10.85;;;1.98;;
83684;SDS011;73666;51.304;5.776;2023-11-19T04:08:34;13.43;;;2.38;;
83684;SDS011;73666;51.304;5.776;2023-11-19T04:13:35;11.27;;;1.70;;
83684;SDS011;73666;51.304;5.776;2023-11-19T04:18:36;12.63;;;1.90;;
83684;SDS011;73666;51.304;5.776;2023-11-19T04:23:37;12.77;;;1.85;;
83684;SDS011;73666;51.304;5.776;2023-11-19T04:28:37;13.60;;;1.38;;
83684;SDS011;73666;51.304;5.776;2023-11-19T04:33:38;15.13;;;2.30;;
83684;SDS011;73666;51.304;5.776;2023-11-19T04:38:39;9.77;;;1.52;;
83684;SDS011;73666;51.304;5.776;2023-11-19T04:43:40;8.95;;;1.58;;
83684;SDS011;73666;51.304;5.776;2023-11-19T04:48:41;11.70;;;1.45;;
83684;SDS011;73666;51.304;5.776;2023-11-19T04:53:42;11.25;;;1.77;;
83684;SDS011;73666;51.304;5.776;2023-11-19T04:58:42;8.10;;;1.08;;
83684;SDS011;73666;51.304;5.776;2023-11-19T05:03:44;9.65;;;1.70;;
83684;SDS011;73666;51.304;5.776;2023-11-19T05:08:48;7.80;;;1.48;;
83684;SDS011;73666;51.304;5.776;2023-11-19T05:13:49;10.07;;;1.05;;
83684;SDS011;73666;51.304;5.776;2023-11-19T05:18:53;12.27;;;1.85;;
83684;SDS011;73666;51.304;5.776;2023-11-19T05:23:53;9.75;;;1.58;;
83684;SDS011;73666;51.304;5.776;2023-11-19T05:28:54;10.80;;;2.22;;
83684;SDS011;73666;51.304;5.776;2023-11-19T05:33:55;7.45;;;1.10;;
83684;SDS011;73666;51.304;5.776;2023-11-19T05:38:55;10.50;;;1.60;;
83684;SDS011;73666;51.304;5.776;2023-11-19T05:43:56;10.77;;;1.52;;
83684;SDS011;73666;51.304;5.776;2023-11-19T05:48:57;10.27;;;1.65;;
83684;SDS011;73666;51.304;5.776;2023-11-19T05:53:58;8.75;;;1.40;;
83684;SDS011;73666;51.304;5.776;2023-11-19T05:58:59;9.00;;;1.65;;
83684;SDS011;73666;51.304;5.776;2023-11-19T06:04:07;8.88;;;1.88;;
83684;SDS011;73666;51.304;5.776;2023-11-19T06:09:07;7.95;;;2.00;;
83684;SDS011;73666;51.304;5.776;2023-11-19T06:14:09;9.18;;;1.90;;
83684;SDS011;73666;51.304;5.776;2023-11-19T06:19:10;15.38;;;2.10;;
83684;SDS011;73666;51.304;5.776;2023-11-19T06:24:11;10.15;;;1.40;;
83684;SDS011;73666;51.304;5.776;2023-11-19T06:29:12;13.50;;;2.10;;
83684;SDS011;73666;51.304;5.776;2023-11-19T06:34:21;8.05;;;2.10;;
83684;SDS011;73666;51.304;5.776;2023-11-19T06:39:22;6.25;;;1.08;;
83684;SDS011;73666;51.304;5.776;2023-11-19T06:44:23;12.38;;;2.05;;
83684;SDS011;73666;51.304;5.776;2023-11-19T06:49:25;15.50;;;2.22;;
83684;SDS011;73666;51.304;5.776;2023-11-19T06:54:25;9.13;;;1.83;;
83684;SDS011;73666;51.304;5.776;2023-11-19T06:59:26;14.48;;;1.60;;
83684;SDS011;73666;51.304;5.776;2023-11-19T07:04:27;14.95;;;2.00;;
83684;SDS011;73666;51.304;5.776;2023-11-19T07:09:27;7.95;;;1.30;;
83684;SDS011;73666;51.304;5.776;2023-11-19T07:14:28;14.77;;;2.15;;
83684;SDS011;73666;51.304;5.776;2023-11-19T07:19:29;12.45;;;1.98;;
83684;SDS011;73666;51.304;5.776;2023-11-19T07:24:30;12.55;;;2.20;;
83684;SDS011;73666;51.304;5.776;2023-11-19T07:29:31;9.38;;;2.00;;
83684;SDS011;73666;51.304;5.776;2023-11-19T07:34:32;11.10;;;2.22;;
83684;SDS011;73666;51.304;5.776;2023-11-19T07:39:34;11.57;;;2.55;;
83684;SDS011;73666;51.304;5.776;2023-11-19T07:44:36;11.05;;;1.92;;
83684;SDS011;73666;51.304;5.776;2023-11-19T07:49:37;10.38;;;2.33;;
83684;SDS011;73666;51.304;5.776;2023-11-19T07:54:38;14.13;;;1.75;;
83684;SDS011;73666;51.304;5.776;2023-11-19T07:59:39;16.42;;;2.47;;
83684;SDS011;73666;51.304;5.776;2023-11-19T08:04:40;14.43;;;1.85;;
83684;SDS011;73666;51.304;5.776;2023-11-19T08:09:45;12.15;;;1.75;;
83684;SDS011;73666;51.304;5.776;2023-11-19T08:14:45;10.18;;;1.80;;
83684;SDS011;73666;51.304;5.776;2023-11-19T08:19:46;15.48;;;2.53;;
83684;SDS011;73666;51.304;5.776;2023-11-19T08:24:48;10.40;;;1.52;;
83684;SDS011;73666;51.304;5.776;2023-11-19T08:29:49;9.95;;;1.42;;
83684;SDS011;73666;51.304;5.776;2023-11-19T08:34:49;11.93;;;2.45;;
83684;SDS011;73666;51.304;5.776;2023-11-19T08:39:51;11.68;;;1.48;;
83684;SDS011;73666;51.304;5.776;2023-11-19T08:44:52;18.60;;;2.88;;
83684;SDS011;73666;51.304;5.776;2023-11-19T08:49:54;21.30;;;2.70;;
83684;SDS011;73666;51.304;5.776;2023-11-19T08:54:55;15.23;;;1.45;;
83684;SDS011;73666;51.304;5.776;2023-11-19T08:59:56;13.23;;;1.67;;
83684;SDS011;73666;51.304;5.776;2023-11-19T09:04:56;12.73;;;1.67;;
83684;SDS011;73666;51.304;5.776;2023-11-19T09:09:58;15.30;;;2.88;;
83684;SDS011;73666;51.304;5.776;2023-11-19T09:14:59;20.10;;;1.80;;
83684;SDS011;73666;51.304;5.776;2023-11-19T09:20:00;12.65;;;2.47;;
83684;SDS011;73666;51.304;5.776;2023-11-19T09:25:01;13.32;;;2.45;;
83684;SDS011;73666;51.304;5.776;2023-11-19T09:30:09;15.27;;;1.73;;
83684;SDS011;73666;51.304;5.776;2023-11-19T09:35:12;17.60;;;2.25;;
83684;SDS011;73666;51.304;5.776;2023-11-19T09:40:22;10.63;;;1.90;;
83684;SDS011;73666;51.304;5.776;2023-11-19T09:45:23;15.13;;;1.73;;
83684;SDS011;73666;51.304;5.776;2023-11-19T09:50:27;13.65;;;1.90;;
83684;SDS011;73666;51.304;5.776;2023-11-19T09:55:28;10.02;;;1.75;;
83684;SDS011;73666;51.304;5.776;2023-11-19T10:00:29;11.45;;;1.67;;
83684;SDS011;73666;51.304;5.776;2023-11-19T10:05:30;13.75;;;1.65;;
83684;SDS011;73666;51.304;5.776;2023-11-19T10:10:31;13.02;;;1.92;;
83684;SDS011;73666;51.304;5.776;2023-11-19T10:15:35;15.13;;;2.20;;
83684;SDS011;73666;51.304;5.776;2023-11-19T10:20:37;11.18;;;1.95;;
83684;SDS011;73666;51.304;5.776;2023-11-19T10:25:40;12.88;;;1.70;;
83684;SDS011;73666;51.304;5.776;2023-11-19T10:30:41;11.82;;;1.85;;
83684;SDS011;73666;51.304;5.776;2023-11-19T10:35:51;11.05;;;1.58;;
83684;SDS011;73666;51.304;5.776;2023-11-19T10:40:59;7.45;;;1.23;;
83684;SDS011;73666;51.304;5.776;2023-11-19T10:46:13;16.52;;;1.70;;
83684;SDS011;73666;51.304;5.776;2023-11-19T10:51:16;14.32;;;1.45;;
83684;SDS011;73666;51.304;5.776;2023-11-19T10:56:25;12.15;;;2.83;;
83684;SDS011;73666;51.304;5.776;2023-11-19T11:01:43;11.13;;;2.22;;
83684;SDS011;73666;51.304;5.776;2023-11-19T11:06:45;15.40;;;2.30;;
83684;SDS011;73666;51.304;5.776;2023-11-19T11:11:47;18.23;;;1.90;;
83684;SDS011;73666;51.304;5.776;2023-11-19T11:16:48;14.18;;;1.88;;
83684;SDS011;73666;51.304;5.776;2023-11-19T11:21:50;12.48;;;1.40;;
83684;SDS011;73666;51.304;5.776;2023-11-19T11:27:02;10.82;;;1.40;;
83684;SDS011;73666;51.304;5.776;2023-11-19T11:37:33;7.95;;;1.77;;
83684;SDS011;73666;51.304;5.776;2023-11-19T11:42:39;10.73;;;1.50;;
83684;SDS011;73666;51.304;5.776;2023-11-19T11:57:57;9.23;;;1.73;;
83684;SDS011;73666;51.304;5.776;2023-11-19T12:03:02;10.38;;;1.27;;
83684;SDS011;73666;51.304;5.776;2023-11-19T12:08:04;11.55;;;3.35;;
83684;SDS011;73666;51.304;5.776;2023-11-19T12:13:07;10.82;;;1.88;;
83684;SDS011;73666;51.304;5.776;2023-11-19T12:18:08;6.28;;;1.52;;
83684;SDS011;73666;51.304;5.776;2023-11-19T12:23:09;9.18;;;1.33;;
83684;SDS011;73666;51.304;5.776;2023-11-19T12:28:13;10.52;;;1.92;;
83684;SDS011;73666;51.304;5.776;2023-11-19T12:33:16;13.60;;;1.95;;
83684;SDS011;73666;51.304;5.776;2023-11-19T12:38:20;11.30;;;1.40;;
83684;SDS011;73666;51.304;5.776;2023-11-19T12:43:25;8.23;;;1.55;;
83684;SDS011;73666;51.304;5.776;2023-11-19T12:48:29;14.73;;;1.42;;
83684;SDS011;73666;51.304;5.776;2023-11-19T12:53:46;9.85;;;1.42;;
83684;SDS011;73666;51.304;5.776;2023-11-19T12:58:54;10.80;;;1.33;;
83684;SDS011;73666;51.304;5.776;2023-11-19T13:03:55;12.60;;;1.67;;
83684;SDS011;73666;51.304;5.776;2023-11-19T13:08:55;6.63;;;1.10;;
83684;SDS011;73666;51.304;5.776;2023-11-19T13:13:57;11.32;;;1.52;;
83684;SDS011;73666;51.304;5.776;2023-11-19T13:18:59;8.35;;;1.25;;
83684;SDS011;73666;51.304;5.776;2023-11-19T13:24:00;7.10;;;1.50;;
83684;SDS011;73666;51.304;5.776;2023-11-19T13:29:00;8.20;;;1.60;;
83684;SDS011;73666;51.304;5.776;2023-11-19T13:34:01;11.23;;;1.38;;
83684;SDS011;73666;51.304;5.776;2023-11-19T13:39:02;13.10;;;1.70;;
83684;SDS011;73666;51.304;5.776;2023-11-19T13:44:03;8.45;;;1.58;;
83684;SDS011;73666;51.304;5.776;2023-11-19T13:49:04;8.82;;;1.40;;
83684;SDS011;73666;51.304;5.776;2023-11-19T13:54:04;6.38;;;1.30;;
83684;SDS011;73666;51.304;5.776;2023-11-19T13:59:05;15.40;;;1.27;;
83684;SDS011;73666;51.304;5.776;2023-11-19T14:04:08;5.57;;;1.48;;
83684;SDS011;73666;51.304;5.776;2023-11-19T14:09:09;4.88;;;1.20;;
83684;SDS011;73666;51.304;5.776;2023-11-19T14:14:10;11.25;;;1.95;;
83684;SDS011;73666;51.304;5.776;2023-11-19T14:19:10;8.85;;;1.70;;
83684;SDS011;73666;51.304;5.776;2023-11-19T14:24:11;11.60;;;1.60;;
83684;SDS011;73666;51.304;5.776;2023-11-19T14:29:12;11.38;;;1.40;;
83684;SDS011;73666;51.304;5.776;2023-11-19T14:34:13;8.73;;;1.33;;
83684;SDS011;73666;51.304;5.776;2023-11-19T14:39:13;11.10;;;1.85;;
83684;SDS011;73666;51.304;5.776;2023-11-19T14:44:15;9.35;;;1.65;;
83684;SDS011;73666;51.304;5.776;2023-11-19T14:49:15;11.05;;;1.80;;
83684;SDS011;73666;51.304;5.776;2023-11-19T14:54:16;7.38;;;1.50;;
83684;SDS011;73666;51.304;5.776;2023-11-19T14:59:17;12.10;;;1.77;;
83684;SDS011;73666;51.304;5.776;2023-11-19T15:04:18;13.85;;;1.60;;
83684;SDS011;73666;51.304;5.776;2023-11-19T15:09:19;9.38;;;1.50;;
83684;SDS011;73666;51.304;5.776;2023-11-19T15:14:21;10.70;;;1.58;;
83684;SDS011;73666;51.304;5.776;2023-11-19T15:19:21;14.00;;;3.88;;
83684;SDS011;73666;51.304;5.776;2023-11-19T15:24:22;8.13;;;1.65;;
83684;SDS011;73666;51.304;5.776;2023-11-19T15:29:23;13.07;;;1.27;;
83684;SDS011;73666;51.304;5.776;2023-11-19T15:34:24;6.38;;;1.95;;
83684;SDS011;73666;51.304;5.776;2023-11-19T15:39:25;7.63;;;1.40;;
83684;SDS011;73666;51.304;5.776;2023-11-19T15:44:27;10.50;;;1.73;;
83684;SDS011;73666;51.304;5.776;2023-11-19T15:54:29;8.90;;;1.58;;
83684;SDS011;73666;51.304;5.776;2023-11-19T15:59:30;9.30;;;1.67;;
83684;SDS011;73666;51.304;5.776;2023-11-19T16:04:31;9.95;;;1.85;;
83684;SDS011;73666;51.304;5.776;2023-11-19T16:09:32;9.00;;;1.45;;
83684;SDS011;73666;51.304;5.776;2023-11-19T16:14:32;9.20;;;1.70;;
83684;SDS011;73666;51.304;5.776;2023-11-19T16:19:33;7.22;;;1.40;;
83684;SDS011;73666;51.304;5.776;2023-11-19T16:24:35;8.57;;;1.52;;
83684;SDS011;73666;51.304;5.776;2023-11-19T16:29:36;12.20;;;1.83;;
83684;SDS011;73666;51.304;5.776;2023-11-19T16:34:37;10.13;;;1.58;;
83684;SDS011;73666;51.304;5.776;2023-11-19T16:39:42;8.43;;;1.63;;
83684;SDS011;73666;51.304;5.776;2023-11-19T16:44:43;8.70;;;1.70;;
83684;SDS011;73666;51.304;5.776;2023-11-19T16:49:44;15.68;;;2.42;;
83684;SDS011;73666;51.304;5.776;2023-11-19T16:54:45;8.13;;;1.75;;
83684;SDS011;73666;51.304;5.776;2023-11-19T16:59:46;11.57;;;1.55;;
83684;SDS011;73666;51.304;5.776;2023-11-19T17:04:48;8.13;;;1.75;;
83684;SDS011;73666;51.304;5.776;2023-11-19T17:09:49;10.05;;;1.75;;
83684;SDS011;73666;51.304;5.776;2023-11-19T17:14:50;10.45;;;1.50;;
83684;SDS011;73666;51.304;5.776;2023-11-19T17:19:52;9.32;;;1.95;;
83684;SDS011;73666;51.304;5.776;2023-11-19T17:24:53;10.63;;;1.67;;
83684;SDS011;73666;51.304;5.776;2023-11-19T17:29:54;5.60;;;1.40;;
83684;SDS011;73666;51.304;5.776;2023-11-19T17:34:58;8.68;;;1.20;;
83684;SDS011;73666;51.304;5.776;2023-11-19T17:39:59;6.90;;;1.45;;
83684;SDS011;73666;51.304;5.776;2023-11-19T17:44:59;8.63;;;1.30;;
83684;SDS011;73666;51.304;5.776;2023-11-19T17:50:00;5.47;;;1.10;;
83684;SDS011;73666;51.304;5.776;2023-11-19T17:55:03;7.35;;;1.40;;
83684;SDS011;73666;51.304;5.776;2023-11-19T18:00:05;6.22;;;1.63;;
83684;SDS011;73666;51.304;5.776;2023-11-19T18:05:11;10.43;;;1.45;;
83684;SDS011;73666;51.304;5.776;2023-11-19T18:10:12;6.18;;;1.33;;
83684;SDS011;73666;51.304;5.776;2023-11-19T18:15:14;7.63;;;1.08;;
83684;SDS011;73666;51.304;5.776;2023-11-19T18:20:15;3.97;;;0.93;;
83684;SDS011;73666;51.304;5.776;2023-11-19T18:25:15;9.73;;;1.55;;
83684;SDS011;73666;51.304;5.776;2023-11-19T18:30:17;4.05;;;0.60;;
83684;SDS011;73666;51.304;5.776;2023-11-19T18:35:18;6.22;;;0.85;;
83684;SDS011;73666;51.304;5.776;2023-11-19T18:40:23;6.05;;;1.08;;
83684;SDS011;73666;51.304;5.776;2023-11-19T18:45:24;10.95;;;1.77;;
83684;SDS011;73666;51.304;5.776;2023-11-19T18:50:25;5.82;;;1.33;;
83684;SDS011;73666;51.304;5.776;2023-11-19T18:55:26;5.55;;;1.02;;
83684;SDS011;73666;51.304;5.776;2023-11-19T19:00:29;5.60;;;1.23;;
83684;SDS011;73666;51.304;5.776;2023-11-19T19:05:29;3.97;;;1.10;;
83684;SDS011;73666;51.304;5.776;2023-11-19T19:10:30;10.40;;;1.33;;
83684;SDS011;73666;51.304;5.776;2023-11-19T19:15:31;2.88;;;1.00;;
83684;SDS011;73666;51.304;5.776;2023-11-19T19:20:32;6.70;;;1.30;;
83684;SDS011;73666;51.304;5.776;2023-11-19T19:25:33;6.20;;;1.05;;
83684;SDS011;73666;51.304;5.776;2023-11-19T19:30:34;10.50;;;2.42;;
83684;SDS011;73666;51.304;5.776;2023-11-19T19:35:36;5.28;;;1.58;;
83684;SDS011;73666;51.304;5.776;2023-11-19T19:40:37;4.68;;;0.93;;
83684;SDS011;73666;51.304;5.776;2023-11-19T19:45:38;6.28;;;1.48;;
83684;SDS011;73666;51.304;5.776;2023-11-19T19:50:41;6.65;;;1.20;;
83684;SDS011;73666;51.304;5.776;2023-11-19T19:55:42;10.88;;;1.67;;
83684;SDS011;73666;51.304;5.776;2023-11-19T20:00:43;6.10;;;1.52;;
83684;SDS011;73666;51.304;5.776;2023-11-19T20:05:44;7.55;;;1.27;;
83684;SDS011;73666;51.304;5.776;2023-11-19T20:10:45;5.30;;;1.00;;
83684;SDS011;73666;51.304;5.776;2023-11-19T20:15:46;10.25;;;1.65;;
83684;SDS011;73666;51.304;5.776;2023-11-19T20:20:49;3.90;;;1.13;;
83684;SDS011;73666;51.304;5.776;2023-11-19T20:25:52;8.15;;;1.20;;
83684;SDS011;73666;51.304;5.776;2023-11-19T20:30:53;6.65;;;1.00;;
83684;SDS011;73666;51.304;5.776;2023-11-19T20:35:55;2.38;;;0.95;;
83684;SDS011;73666;51.304;5.776;2023-11-19T20:40:57;2.55;;;1.05;;
83684;SDS011;73666;51.304;5.776;2023-11-19T20:45:59;6.53;;;1.33;;
83684;SDS011;73666;51.304;5.776;2023-11-19T20:51:00;3.90;;;0.82;;
83684;SDS011;73666;51.304;5.776;2023-11-19T20:56:01;4.13;;;1.02;;
83684;SDS011;73666;51.304;5.776;2023-11-19T21:01:03;2.88;;;1.02;;
83684;SDS011;73666;51.304;5.776;2023-11-19T21:06:04;5.35;;;1.25;;
83684;SDS011;73666;51.304;5.776;2023-11-19T21:11:07;4.93;;;0.73;;
83684;SDS011;73666;51.304;5.776;2023-11-19T21:16:09;4.10;;;0.95;;
83684;SDS011;73666;51.304;5.776;2023-11-19T21:21:12;6.00;;;1.02;;
83684;SDS011;73666;51.304;5.776;2023-11-19T21:31:15;4.82;;;0.85;;
83684;SDS011;73666;51.304;5.776;2023-11-19T21:36:17;4.90;;;0.70;;
83684;SDS011;73666;51.304;5.776;2023-11-19T21:41:18;4.45;;;0.98;;
83684;SDS011;73666;51.304;5.776;2023-11-19T21:46:19;3.30;;;0.98;;
83684;SDS011;73666;51.304;5.776;2023-11-19T21:51:21;7.13;;;1.00;;
83684;SDS011;73666;51.304;5.776;2023-11-19T21:56:21;4.78;;;1.83;;
83684;SDS011;73666;51.304;5.776;2023-11-19T22:01:22;8.00;;;0.80;;
83684;SDS011;73666;51.304;5.776;2023-11-19T22:06:23;5.47;;;1.33;;
83684;SDS011;73666;51.304;5.776;2023-11-19T22:11:23;3.85;;;1.00;;
83684;SDS011;73666;51.304;5.776;2023-11-19T22:16:26;3.15;;;0.82;;
83684;SDS011;73666;51.304;5.776;2023-11-19T22:21:27;4.38;;;0.77;;
83684;SDS011;73666;51.304;5.776;2023-11-19T22:26:28;7.35;;;0.93;;
83684;SDS011;73666;51.304;5.776;2023-11-19T22:31:32;5.65;;;1.23;;
83684;SDS011;73666;51.304;5.776;2023-11-19T22:36:33;5.88;;;0.80;;
83684;SDS011;73666;51.304;5.776;2023-11-19T22:41:34;4.57;;;0.77;;
83684;SDS011;73666;51.304;5.776;2023-11-19T22:46:35;2.25;;;0.73;;
83684;SDS011;73666;51.304;5.776;2023-11-19T22:51:36;2.30;;;0.70;;
83684;SDS011;73666;51.304;5.776;2023-11-19T22:56:38;4.18;;;1.13;;
83684;SDS011;73666;51.304;5.776;2023-11-19T23:01:38;2.63;;;0.80;;
83684;SDS011;73666;51.304;5.776;2023-11-19T23:06:40;3.67;;;0.85;;
83684;SDS011;73666;51.304;5.776;2023-11-19T23:11:43;5.53;;;0.77;;
83684;SDS011;73666;51.304;5.776;2023-11-19T23:16:44;4.25;;;0.73;;
83684;SDS011;73666;51.304;5.776;2023-11-19T23:21:45;6.28;;;1.30;;
83684;SDS011;73666;51.304;5.776;2023-11-19T23:26:46;4.30;;;0.70;;
83684;SDS011;73666;51.304;5.776;2023-11-19T23:31:47;3.22;;;0.60;;
83684;SDS011;73666;51.304;5.776;2023-11-19T23:36:48;10.27;;;0.90;;
83684;SDS011;73666;51.304;5.776;2023-11-19T23:41:49;2.60;;;1.00;;
83684;SDS011;73666;51.304;5.776;2023-11-19T23:46:50;6.55;;;0.90;;
83684;SDS011;73666;51.304;5.776;2023-11-19T23:51:51;6.43;;;0.70;;
83684;SDS011;73666;51.304;5.776;2023-11-19T23:56:52;6.70;;;1.30;;
